Time;durP1;ratioP1;P1;durP2;ratioP2;P2;SDS_P1;SDS_P2;PMS_P1;PMS_P2;Temp;Humidity;BMP_temperature;BMP_pressure;BME280_temperature;BME280_humidity;BME280_pressure;Samples;Min_cycle;Max_cycle;Signal;HPM_P1;HPM_P2
2023/01/08 00:00:50;;;;;;;;;7.67;4.00;;;;;11.70;75.68;100240.94;4975583;28;46383;-42
2023/01/08 00:03:15;;;;;;;;;7.00;6.67;;;;;11.72;75.38;100230.16;4975751;28;45381;-39
2023/01/08 00:05:41;;;;;;;;;6.00;5.00;;;;;11.66;75.66;100218.31;4975888;28;45455;-41
2023/01/08 00:08:07;;;;;;;;;3.33;3.33;;;;;11.73;75.37;100231.81;4976003;28;45246;-43
2023/01/08 00:10:34;;;;;;;;;5.67;4.00;;;;;11.73;75.06;100226.47;4975767;28;46289;-42
2023/01/08 00:12:59;;;;;;;;;8.00;6.00;;;;;11.73;75.48;100224.63;4975529;28;45344;-41
2023/01/08 00:15:25;;;;;;;;;9.00;5.67;;;;;11.75;75.38;100216.47;4975639;28;45219;-41
2023/01/08 00:17:50;;;;;;;;;8.00;4.00;;;;;11.74;75.36;100210.31;4974893;28;45392;-42
2023/01/08 00:20:15;;;;;;;;;7.00;6.00;;;;;11.73;75.08;100215.81;4975335;28;46148;-42
2023/01/08 00:22:41;;;;;;;;;6.67;4.00;;;;;11.69;75.21;100201.16;4975560;28;45720;-45
2023/01/08 00:25:07;;;;;;;;;6.33;6.00;;;;;11.71;75.13;100212.47;4976844;28;45330;-41
2023/01/08 00:27:32;;;;;;;;;6.00;6.00;;;;;11.73;74.90;100208.66;4975851;28;45491;-43
2023/01/08 00:29:57;;;;;;;;;6.00;3.67;;;;;11.73;75.24;100208.66;4975410;28;46098;-45
2023/01/08 00:32:23;;;;;;;;;7.00;5.00;;;;;11.73;75.35;100216.66;4974118;28;45346;-40
2023/01/08 00:34:48;;;;;;;;;6.67;2.00;;;;;11.70;74.86;100208.16;4975746;28;45329;-42
2023/01/08 00:37:17;;;;;;;;;6.00;3.00;;;;;11.73;75.05;100221.16;4975704;28;45395;-43
2023/01/08 00:39:43;;;;;;;;;7.33;5.00;;;;;11.71;75.24;100208.00;4975459;28;45429;-41
2023/01/08 00:42:08;;;;;;;;;7.00;3.00;;;;;11.71;74.76;100213.31;4975171;28;45196;-40
2023/01/08 00:44:34;;;;;;;;;4.67;4.00;;;;;11.54;74.90;100185.00;4975431;28;45404;-42
2023/01/08 00:46:59;;;;;;;;;3.67;3.67;;;;;11.73;74.68;100213.16;4975775;28;45256;-42
2023/01/08 00:49:24;;;;;;;;;4.00;4.00;;;;;11.73;74.51;100218.47;4974873;28;51756;-42
2023/01/08 00:51:50;;;;;;;;;9.00;7.33;;;;;11.74;74.77;100201.47;4975178;28;48284;-41
2023/01/08 00:54:15;;;;;;;;;3.00;3.00;;;;;11.74;74.81;100183.66;4975512;28;45449;-42
2023/01/08 00:56:40;;;;;;;;;6.67;6.33;;;;;11.76;74.86;100190.69;4975422;28;45149;-40
2023/01/08 00:59:06;;;;;;;;;7.00;4.67;;;;;11.76;74.44;100194.19;4975305;28;45349;-42
2023/01/08 01:01:31;;;;;;;;;7.00;4.00;;;;;11.74;73.95;100185.50;4975058;28;45480;-40
2023/01/08 01:03:56;;;;;;;;;6.00;5.00;;;;;11.70;74.40;100185.00;4975315;28;45294;-42
2023/01/08 01:06:21;;;;;;;;;6.33;4.00;;;;;11.71;73.96;100192.00;4975316;28;45468;-42
2023/01/08 01:08:47;;;;;;;;;5.67;4.00;;;;;11.70;74.47;100190.31;4974951;28;46021;-41
2023/01/08 01:11:22;;;;;;;;;3.00;2.67;;;;;11.69;74.08;100178.00;4975062;28;45340;-42
2023/01/08 01:13:48;;;;;;;;;7.00;4.67;;;;;11.69;74.18;100178.00;4975131;28;45384;-42
2023/01/08 01:16:13;;;;;;;;;3.00;3.00;;;;;11.68;74.16;100167.53;4975036;28;45331;-43
2023/01/08 01:18:39;;;;;;;;;3.67;3.00;;;;;11.68;74.15;100178.19;4974896;28;46071;-42
2023/01/08 01:21:24;;;;;;;;;4.00;3.67;;;;;11.68;73.69;100168.34;4974384;28;47508;-42
2023/01/08 01:23:53;;;;;;;;;2.67;2.67;;;;;11.67;73.42;100169.38;4975140;28;45417;-41
2023/01/08 01:26:19;;;;;;;;;2.00;2.00;;;;;11.67;74.02;100168.50;4974895;28;45590;-41
2023/01/08 01:28:49;;;;;;;;;4.67;3.33;;;;;11.56;73.48;100161.69;4974181;28;45436;-41
2023/01/08 01:31:15;;;;;;;;;3.00;2.00;;;;;11.62;73.68;100165.53;4974624;28;45444;-42
2023/01/08 01:33:41;;;;;;;;;3.00;3.00;;;;;11.61;73.84;100179.84;4974706;28;45342;-42
2023/01/08 01:36:08;;;;;;;;;4.00;4.00;;;;;11.60;73.40;100160.38;4975082;28;45220;-43
2023/01/08 01:38:33;;;;;;;;;3.00;2.67;;;;;11.59;73.89;100168.53;4974254;28;47153;-42
2023/01/08 01:40:59;;;;;;;;;4.00;2.33;;;;;11.59;73.36;100168.53;4974526;28;45264;-41
2023/01/08 01:43:41;;;;;;;;;2.00;2.00;;;;;11.57;73.84;100162.53;4974749;28;45239;-44
2023/01/08 01:46:35;;;;;;;;;3.33;3.33;;;;;11.56;73.19;100167.03;4974735;28;45393;-42
2023/01/08 01:49:16;;;;;;;;;3.33;1.33;;;;;11.51;73.37;100173.88;4975046;28;46080;-42
2023/01/08 01:51:54;;;;;;;;;2.00;1.00;;;;;11.56;73.10;100188.34;4974167;28;45543;-42
2023/01/08 01:54:21;;;;;;;;;3.00;1.00;;;;;11.55;73.64;100184.03;4974470;28;45383;-46
2023/01/08 01:56:47;;;;;;;;;2.33;2.33;;;;;11.53;73.52;100183.34;4974683;28;45165;-43
2023/01/08 01:59:12;;;;;;;;;1.67;1.67;;;;;11.45;73.63;100186.00;4974176;28;46149;-47
2023/01/08 02:01:40;;;;;;;;;4.33;3.00;;;;;11.51;73.12;100180.03;4974179;28;45412;-44
2023/01/08 02:04:09;;;;;;;;;1.33;1.33;;;;;11.53;73.08;100195.84;4974523;28;45283;-48
2023/01/08 02:06:36;;;;;;;;;5.33;3.67;;;;;11.51;73.02;100195.19;4974230;28;45452;-43
2023/01/08 02:09:05;;;;;;;;;4.00;4.00;;;;;11.53;73.14;100193.16;4974055;28;47055;-43
2023/01/08 02:11:45;;;;;;;;;3.67;3.00;;;;;11.53;72.76;100194.00;4973902;28;45436;-42
2023/01/08 02:14:27;;;;;;;;;3.67;2.00;;;;;11.51;73.54;100189.84;4974131;28;45344;-45
2023/01/08 02:17:01;;;;;;;;;4.00;2.67;;;;;11.47;73.11;100184.03;4974205;28;45363;-43
2023/01/08 02:19:41;;;;;;;;;6.00;2.00;;;;;11.18;73.03;100163.19;4973983;28;47063;-45
2023/01/08 02:22:31;;;;;;;;;2.67;2.33;;;;;11.47;72.77;100194.69;4973696;28;45425;-40
2023/01/08 02:25:11;;;;;;;;;3.33;1.00;;;;;11.51;72.84;100201.34;4974188;28;45597;-41
2023/01/08 02:27:42;;;;;;;;;5.67;1.33;;;;;11.49;72.64;100195.31;4974365;28;45260;-41
2023/01/08 02:30:09;;;;;;;;;3.33;1.33;;;;;11.46;72.88;100192.97;4973874;28;45308;-42
2023/01/08 02:32:40;;;;;;;;;1.67;1.33;;;;;11.44;73.09;100192.34;4973755;28;45404;-42
2023/01/08 02:35:06;;;;;;;;;2.00;2.00;;;;;11.42;72.96;100187.19;4974138;28;45281;-43
2023/01/08 02:37:32;;;;;;;;;2.00;2.00;;;;;11.47;73.03;100200.84;4973903;28;45438;-43
2023/01/08 02:40:10;;;;;;;;;3.33;1.00;;;;;11.49;72.97;100198.81;4973616;28;46019;-42
2023/01/08 02:42:46;;;;;;;;;1.33;1.33;;;;;11.50;73.62;100191.66;4976285;28;45360;-43
2023/01/08 02:45:35;;;;;;;;;3.00;1.67;;;;;11.45;73.23;100170.03;4977065;28;45342;-40
2023/01/08 02:48:00;;;;;;;;;2.00;2.00;;;;;11.49;73.34;100182.00;4976918;28;45280;-44
2023/01/08 02:50:36;;;;;;;;;4.67;3.00;;;;;11.48;73.31;100185.69;4976443;28;45439;-42
2023/01/08 02:53:12;;;;;;;;;5.00;2.00;;;;;11.48;73.39;100185.69;4976499;28;45486;-41
2023/01/08 02:55:41;;;;;;;;;5.67;1.33;;;;;11.47;73.55;100181.34;4976822;28;45474;-42
2023/01/08 02:58:07;;;;;;;;;2.00;2.00;;;;;11.45;73.59;100167.34;4975553;28;45324;-42
2023/01/08 03:00:34;;;;;;;;;3.00;3.00;;;;;11.47;73.41;100181.34;4976401;28;46376;-41
2023/01/08 03:03:11;;;;;;;;;2.67;2.00;;;;;11.47;73.72;100176.84;4976695;28;45326;-40
2023/01/08 03:05:40;;;;;;;;;2.00;2.00;;;;;11.46;73.32;100172.53;4976565;28;45393;-41
2023/01/08 03:08:06;;;;;;;;;1.00;1.00;;;;;11.35;73.37;100154.22;4976514;28;45377;-44
2023/01/08 03:10:36;;;;;;;;;1.67;1.67;;;;;11.43;73.28;100170.19;4976554;28;45222;-43
2023/01/08 03:13:07;;;;;;;;;1.33;0.33;;;;;11.46;73.80;100171.69;4976441;28;45337;-40
2023/01/08 03:15:44;;;;;;;;;6.67;2.33;;;;;11.44;73.24;100160.38;4976454;28;45867;-41
2023/01/08 03:18:14;;;;;;;;;4.33;1.00;;;;;11.44;73.54;100153.22;4976844;28;45264;-42
2023/01/08 03:20:40;;;;;;;;;4.00;3.00;;;;;11.43;73.27;100154.22;4976121;28;47022;-40
2023/01/08 03:23:09;;;;;;;;;2.00;2.00;;;;;11.40;73.31;100151.06;4975966;28;45358;-39
2023/01/08 03:25:42;;;;;;;;;2.67;1.67;;;;;11.42;73.78;100151.72;4976430;28;45231;-41
2023/01/08 03:28:14;;;;;;;;;2.00;1.00;;;;;11.41;73.46;100144.72;4976605;28;45530;-41
2023/01/08 03:30:41;;;;;;;;;2.33;2.33;;;;;11.41;73.55;100152.72;4976011;28;45437;-42
2023/01/08 03:33:10;;;;;;;;;0.00;0.00;;;;;11.43;73.54;100153.38;4976430;28;45370;-41
2023/01/08 03:35:38;;;;;;;;;3.00;2.00;;;;;11.43;73.67;100164.03;4974976;28;45447;-39
2023/01/08 03:38:13;;;;;;;;;1.00;1.00;;;;;11.42;73.71;100155.22;4976190;28;45402;-40
2023/01/08 03:40:45;;;;;;;;;6.00;1.67;;;;;11.32;73.74;100135.91;4975926;28;45517;-42
2023/01/08 03:43:10;;;;;;;;;1.00;1.00;;;;;11.34;73.61;100141.91;4975962;28;45376;-43
2023/01/08 03:45:39;;;;;;;;;2.00;2.00;;;;;11.37;73.63;100144.22;4976208;28;45248;-41
2023/01/08 03:48:06;;;;;;;;;2.33;2.33;;;;;11.34;73.69;100135.75;4974821;28;45614;-42
2023/01/08 03:50:33;;;;;;;;;5.00;1.00;;;;;11.30;73.81;100142.41;4975766;28;46028;-42
2023/01/08 03:52:58;;;;;;;;;0.00;0.00;;;;;11.28;74.00;100141.72;4975444;28;45231;-41
2023/01/08 03:55:23;;;;;;;;;5.00;2.00;;;;;11.26;74.45;100141.06;4974441;28;45161;-42
2023/01/08 03:57:49;;;;;;;;;2.00;1.00;;;;;11.28;73.64;100134.56;4976381;28;45287;-42
2023/01/08 04:00:15;;;;;;;;;1.00;1.00;;;;;11.29;73.75;100140.72;4975859;28;45440;-42
2023/01/08 04:02:43;;;;;;;;;1.00;1.00;;;;;11.27;74.22;100146.22;4975793;28;45370;-41
2023/01/08 04:05:09;;;;;;;;;1.00;1.00;;;;;11.29;74.00;100133.56;4975745;28;45354;-42
2023/01/08 04:07:35;;;;;;;;;1.00;1.00;;;;;11.23;73.88;100124.41;4975817;28;45338;-42
2023/01/08 04:10:00;;;;;;;;;1.00;1.00;;;;;11.29;73.99;100127.41;4975724;28;46456;-41
2023/01/08 04:12:26;;;;;;;;;1.00;1.00;;;;;11.29;73.90;100119.41;4975773;28;45345;-42
2023/01/08 04:14:51;;;;;;;;;4.67;1.00;;;;;11.28;73.71;100117.75;4975883;28;45372;-42
2023/01/08 04:17:16;;;;;;;;;2.67;1.00;;;;;11.27;73.42;100110.78;4975802;28;45484;-42
2023/01/08 04:19:41;;;;;;;;;3.00;1.00;;;;;11.27;73.45;100108.94;4975891;28;45342;-42
2023/01/08 04:22:10;;;;;;;;;0.00;0.00;;;;;11.29;73.78;100108.75;4975546;28;45262;-42
2023/01/08 04:24:35;;;;;;;;;2.33;1.33;;;;;11.27;73.92;100100.97;4975597;28;45450;-41
2023/01/08 04:27:00;;;;;;;;;2.67;2.00;;;;;11.29;73.50;100096.28;4975832;28;45308;-42
2023/01/08 04:29:25;;;;;;;;;1.00;1.00;;;;;11.31;73.59;100090.81;4975291;28;54361;-41
2023/01/08 04:31:51;;;;;;;;;1.00;1.00;;;;;11.25;73.33;100081.66;4975760;28;45166;-40
2023/01/08 04:34:16;;;;;;;;;2.00;1.33;;;;;11.25;73.56;100084.34;4975558;28;45257;-41
2023/01/08 04:36:41;;;;;;;;;1.00;1.00;;;;;11.23;73.86;100092.47;4975714;28;45621;-41
2023/01/08 04:39:07;;;;;;;;;1.00;1.00;;;;;11.22;73.31;100074.84;4975130;28;46044;-40
2023/01/08 04:41:32;;;;;;;;;1.33;1.00;;;;;11.20;73.76;100083.97;4975313;28;45322;-48
2023/01/08 04:43:58;;;;;;;;;2.00;0.00;;;;;11.21;73.89;100083.00;4975730;28;45320;-49
2023/01/08 04:46:23;;;;;;;;;1.33;1.00;;;;;11.21;73.66;100072.34;4975606;28;45386;-41
2023/01/08 04:48:48;;;;;;;;;2.33;1.00;;;;;11.21;73.68;100067.03;4974857;28;51464;-41
2023/01/08 04:51:14;;;;;;;;;2.00;2.00;;;;;11.20;73.93;100066.16;4975178;28;45387;-41
2023/01/08 04:53:40;;;;;;;;;1.67;1.00;;;;;11.15;74.00;100059.69;4975239;28;45403;-43
2023/01/08 04:56:10;;;;;;;;;3.00;1.00;;;;;11.12;73.86;100052.03;4975535;28;45402;-40
2023/01/08 04:58:36;;;;;;;;;2.00;1.67;;;;;11.09;74.22;100061.19;4973729;28;46224;-41
2023/01/08 05:01:12;;;;;;;;;1.00;1.00;;;;;11.10;74.02;100065.53;4975046;28;45253;-43
2023/01/08 05:03:38;;;;;;;;;2.00;2.00;;;;;11.10;74.68;100054.03;4974410;28;45304;-41
2023/01/08 05:06:05;;;;;;;;;2.33;1.00;;;;;11.06;74.56;100055.38;4975142;28;45422;-41
2023/01/08 05:08:30;;;;;;;;;7.00;1.00;;;;;11.09;74.35;100045.22;4974688;28;46191;-42
2023/01/08 05:10:58;;;;;;;;;2.67;2.67;;;;;11.06;74.44;100037.56;4974880;28;47439;-41
2023/01/08 05:13:23;;;;;;;;;3.00;1.67;;;;;11.02;74.25;100038.06;4974881;28;45296;-40
2023/01/08 05:15:49;;;;;;;;;2.33;1.00;;;;;11.01;74.15;100039.09;4975291;28;45306;-41
2023/01/08 05:18:14;;;;;;;;;1.00;1.00;;;;;10.99;74.54;100045.38;4974953;28;45937;-41
2023/01/08 05:20:39;;;;;;;;;1.67;1.67;;;;;10.99;74.63;100044.56;4974811;28;45450;-40
2023/01/08 05:23:04;;;;;;;;;2.00;1.00;;;;;10.99;74.53;100049.88;4975030;28;45360;-42
2023/01/08 05:25:30;;;;;;;;;1.00;1.00;;;;;10.99;74.51;100066.66;4974964;28;45287;-41
2023/01/08 05:27:55;;;;;;;;;0.00;0.00;;;;;10.98;74.82;100050.88;4974809;28;46114;-41
2023/01/08 05:30:20;;;;;;;;;3.00;1.00;;;;;10.96;75.21;100051.06;4974751;28;48749;-41
2023/01/08 05:32:46;;;;;;;;;4.33;1.00;;;;;10.93;75.25;100043.41;4974777;28;45196;-40
2023/01/08 05:35:11;;;;;;;;;1.00;1.00;;;;;10.93;75.41;100042.56;4975106;28;45203;-42
2023/01/08 05:37:37;;;;;;;;;1.00;1.00;;;;;10.92;75.46;100046.25;4973385;28;46631;-42
2023/01/08 05:40:03;;;;;;;;;0.67;0.67;;;;;10.92;75.52;100038.25;4974787;28;45476;-44
2023/01/08 05:42:29;;;;;;;;;3.33;2.00;;;;;10.88;75.77;100039.59;4974606;28;45501;-42
2023/01/08 05:44:54;;;;;;;;;2.00;1.00;;;;;10.90;76.38;100049.03;4974979;28;45258;-42
2023/01/08 05:47:19;;;;;;;;;1.00;1.00;;;;;10.88;76.81;100067.03;4974267;28;50454;-42
2023/01/08 05:49:44;;;;;;;;;0.67;0.33;;;;;10.95;76.20;100107.09;4972857;28;45461;-42
2023/01/08 05:52:10;;;;;;;;;0.67;0.00;;;;;10.89;75.04;100103.28;4974342;28;50631;-41
2023/01/08 05:54:35;;;;;;;;;1.00;0.00;;;;;10.87;74.31;100093.78;4974381;28;45407;-42
2023/01/08 05:57:00;;;;;;;;;0.00;0.00;;;;;10.82;73.89;100088.13;4974380;28;45522;-41
2023/01/08 05:59:26;;;;;;;;;0.00;0.00;;;;;10.79;72.25;100093.75;4974695;28;45342;-41
2023/01/08 06:01:51;;;;;;;;;1.00;0.00;;;;;10.76;72.31;100078.16;4974441;28;45689;-41
2023/01/08 06:04:16;;;;;;;;;0.00;0.00;;;;;10.73;72.24;100082.78;4974627;28;45346;-41
2023/01/08 06:06:42;;;;;;;;;0.00;0.00;;;;;10.69;71.82;100076.13;4974536;28;46228;-42
2023/01/08 06:09:08;;;;;;;;;0.33;0.00;;;;;10.64;71.98;100066.97;4975486;28;45238;-40
2023/01/08 06:11:33;;;;;;;;;1.00;0.00;;;;;10.56;70.88;100069.63;4974284;28;45353;-41
2023/01/08 06:13:58;;;;;;;;;0.00;0.00;;;;;10.49;71.24;100070.28;4974557;28;45428;-41
2023/01/08 06:16:24;;;;;;;;;0.00;0.00;;;;;10.39;70.89;100069.56;4975186;28;50882;-40
2023/01/08 06:18:49;;;;;;;;;0.00;0.00;;;;;10.35;70.90;100062.09;4977314;28;45200;-41
2023/01/08 06:21:14;;;;;;;;;0.00;0.00;;;;;10.27;72.16;100062.88;4977184;28;45469;-40
2023/01/08 06:23:40;;;;;;;;;0.00;0.00;;;;;10.17;72.01;100070.97;4977417;28;45337;-40
2023/01/08 06:26:05;;;;;;;;;0.00;0.00;;;;;10.08;72.25;100066.63;4977633;28;46272;-42
2023/01/08 06:28:31;;;;;;;;;0.00;0.00;;;;;10.03;72.59;100071.59;4977691;28;45203;-42
2023/01/08 06:31:01;;;;;;;;;0.33;0.33;;;;;10.00;72.21;100071.91;4977709;28;45193;-42
2023/01/08 06:33:27;;;;;;;;;0.00;0.00;;;;;9.96;72.71;100071.38;4977658;28;45391;-41
2023/01/08 06:35:52;;;;;;;;;0.00;0.00;;;;;9.89;73.19;100074.84;4977362;28;46162;-42
2023/01/08 06:38:18;;;;;;;;;0.00;0.00;;;;;9.86;72.97;100072.47;4977249;28;45412;-41
2023/01/08 06:40:44;;;;;;;;;0.00;0.00;;;;;9.81;73.30;100072.13;4977177;28;45505;-42
2023/01/08 06:43:10;;;;;;;;;0.00;0.00;;;;;9.78;73.64;100080.44;4977270;28;45513;-42
2023/01/08 06:45:35;;;;;;;;;0.00;0.00;;;;;9.72;73.81;100074.75;4977126;28;47285;-42
2023/01/08 06:48:03;;;;;;;;;0.00;0.00;;;;;9.66;74.16;100078.03;4976980;28;45291;-43
2023/01/08 06:50:29;;;;;;;;;0.00;0.00;;;;;9.69;74.49;100085.69;4976727;28;45311;-39
2023/01/08 06:52:55;;;;;;;;;0.00;0.00;;;;;9.65;73.93;100068.41;4977068;28;45324;-42
2023/01/08 06:55:22;;;;;;;;;0.00;0.00;;;;;9.66;74.75;100077.22;4976503;28;45431;-41
2023/01/08 06:57:47;;;;;;;;;0.00;0.00;;;;;9.66;74.58;100079.88;4976494;28;45236;-42
2023/01/08 07:00:13;;;;;;;;;0.00;0.00;;;;;9.64;75.01;100080.00;4976859;28;45204;-42
2023/01/08 07:02:38;;;;;;;;;0.00;0.00;;;;;9.62;74.57;100073.19;4976890;28;45197;-41
2023/01/08 07:05:04;;;;;;;;;0.00;0.00;;;;;9.62;75.04;100078.50;4976464;28;46807;-40
2023/01/08 07:07:29;;;;;;;;;0.00;0.00;;;;;9.61;75.73;100076.84;4976581;28;45251;-41
2023/01/08 07:09:54;;;;;;;;;0.00;0.00;;;;;9.62;76.39;100078.50;4976496;28;45254;-43
2023/01/08 07:12:20;;;;;;;;;0.00;0.00;;;;;9.65;75.90;100076.38;4976901;28;45292;-41
2023/01/08 07:14:45;;;;;;;;;0.00;0.00;;;;;9.64;75.92;100077.34;4976349;28;46158;-42
2023/01/08 07:17:10;;;;;;;;;1.00;0.00;;;;;9.65;76.08;100070.22;4976460;28;45533;-42
2023/01/08 07:19:36;;;;;;;;;0.00;0.00;;;;;9.66;76.16;100067.41;4976584;28;45827;-40
2023/01/08 07:22:01;;;;;;;;;2.00;0.00;;;;;9.64;76.11;100066.72;4976619;28;45401;-43
2023/01/08 07:24:27;;;;;;;;;1.00;0.00;;;;;9.66;76.87;100066.59;4976342;28;46054;-42
2023/01/08 07:26:52;;;;;;;;;2.33;1.00;;;;;9.68;77.01;100076.03;4975897;28;45425;-43
2023/01/08 07:29:17;;;;;;;;;0.33;0.33;;;;;9.68;76.61;100076.03;4976467;28;45648;-42
2023/01/08 07:31:43;;;;;;;;;1.00;1.00;;;;;9.71;77.06;100072.25;4976578;28;45300;-41
2023/01/08 07:34:08;;;;;;;;;0.00;0.00;;;;;9.71;77.43;100070.44;4976038;28;51693;-42
2023/01/08 07:36:33;;;;;;;;;0.00;0.00;;;;;9.71;77.39;100072.25;4976453;28;45329;-40
2023/01/08 07:38:59;;;;;;;;;0.00;0.00;;;;;9.72;77.44;100072.09;4975165;28;45432;-43
2023/01/08 07:41:25;;;;;;;;;2.00;0.67;;;;;9.70;76.68;100071.44;4976429;28;45366;-41
2023/01/08 07:43:50;;;;;;;;;0.00;0.00;;;;;9.71;77.17;100075.75;4976119;28;45369;-42
2023/01/08 07:46:15;;;;;;;;;0.00;0.00;;;;;9.68;77.76;100060.09;4976155;28;45306;-42
2023/01/08 07:48:41;;;;;;;;;2.00;1.00;;;;;9.73;77.03;100068.47;4976137;28;45417;-41
2023/01/08 07:51:07;;;;;;;;;3.00;0.00;;;;;9.74;76.77;100056.84;4976209;28;45311;-42
2023/01/08 07:53:34;;;;;;;;;2.00;1.00;;;;;9.74;77.75;100064.81;4976093;28;46365;-43
2023/01/08 07:56:01;;;;;;;;;2.00;1.00;;;;;9.75;78.29;100065.63;4976054;28;45257;-42
2023/01/08 07:58:26;;;;;;;;;1.67;0.00;;;;;9.71;77.72;100059.81;4976178;28;45263;-44
2023/01/08 08:00:52;;;;;;;;;1.33;0.33;;;;;9.70;77.51;100044.88;4976296;28;45353;-47
2023/01/08 08:03:17;;;;;;;;;0.33;0.00;;;;;9.74;77.93;100051.53;4975929;28;45405;-43
2023/01/08 08:05:43;;;;;;;;;0.00;0.00;;;;;9.74;77.17;100059.50;4976080;28;45323;-42
2023/01/08 08:08:10;;;;;;;;;1.67;1.33;;;;;9.78;77.99;100053.88;4976269;28;45393;-41
2023/01/08 08:10:37;;;;;;;;;0.00;0.00;;;;;9.77;78.00;100060.97;4976119;28;45454;-42
2023/01/08 08:13:03;;;;;;;;;3.00;0.33;;;;;9.80;77.08;100062.50;4975928;28;45419;-42
2023/01/08 08:15:28;;;;;;;;;2.00;0.00;;;;;9.81;77.49;100053.53;4975767;28;45837;-43
2023/01/08 08:17:53;;;;;;;;;2.00;0.00;;;;;9.84;77.65;100050.56;4976019;28;45408;-46
2023/01/08 08:20:19;;;;;;;;;1.00;1.00;;;;;9.87;77.73;100042.28;4976283;28;45351;-43
2023/01/08 08:22:44;;;;;;;;;1.00;1.00;;;;;9.96;78.38;100049.31;4975640;28;45489;-42
2023/01/08 08:25:11;;;;;;;;;3.00;1.33;;;;;9.98;77.72;100034.03;4974360;28;45361;-42
2023/01/08 08:27:36;;;;;;;;;3.67;1.67;;;;;10.03;77.72;100039.72;4975737;28;45182;-43
2023/01/08 08:30:02;;;;;;;;;0.67;0.00;;;;;10.04;77.43;100037.88;4975939;28;45417;-42
2023/01/08 08:32:27;;;;;;;;;1.00;1.00;;;;;10.08;77.05;100024.09;4975538;28;46262;-43
2023/01/08 08:34:53;;;;;;;;;2.00;0.67;;;;;10.12;76.94;100036.09;4975234;28;45465;-43
2023/01/08 08:37:18;;;;;;;;;1.00;1.00;;;;;10.12;77.29;100030.75;4975707;28;46210;-42
2023/01/08 08:39:43;;;;;;;;;2.33;1.00;;;;;10.16;76.97;100028.63;4974457;28;45430;-41
2023/01/08 08:42:09;;;;;;;;;31.00;25.67;;;;;10.17;76.79;100033.75;4974972;28;45630;-42
2023/01/08 08:44:34;;;;;;;;;4.33;2.67;;;;;10.20;76.65;100017.50;4975405;28;46679;-42
2023/01/08 08:46:59;;;;;;;;;2.67;0.67;;;;;10.19;76.73;100022.97;4975325;28;45381;-43
2023/01/08 08:49:25;;;;;;;;;2.67;1.00;;;;;10.20;76.51;100016.69;4975694;28;45296;-41
2023/01/08 08:51:51;;;;;;;;;0.33;0.33;;;;;10.21;76.30;100018.34;4975334;28;47296;-41
2023/01/08 08:54:17;;;;;;;;;1.67;1.00;;;;;10.26;76.27;100009.91;4975446;28;45519;-41
2023/01/08 08:56:42;;;;;;;;;1.00;0.00;;;;;10.30;75.93;100009.41;4975475;28;45465;-42
2023/01/08 08:59:10;;;;;;;;;1.00;1.00;;;;;10.28;75.54;100002.56;4975537;28;45281;-42
2023/01/08 09:01:36;;;;;;;;;2.00;1.00;;;;;10.34;75.94;100010.75;4975229;28;47172;-43
2023/01/08 09:04:01;;;;;;;;;1.67;1.00;;;;;10.42;75.44;100008.09;4975267;28;45225;-42
2023/01/08 09:06:26;;;;;;;;;1.00;1.00;;;;;10.42;75.25;100018.75;4975274;28;45362;-42
2023/01/08 09:08:53;;;;;;;;;0.00;0.00;;;;;10.53;74.84;100014.91;4975535;28;45283;-42
2023/01/08 09:11:19;;;;;;;;;3.00;3.00;;;;;10.70;74.69;100011.31;4974948;28;45433;-42
2023/01/08 09:13:44;;;;;;;;;3.00;1.67;;;;;10.85;73.77;100018.63;4975143;28;45397;-41
2023/01/08 09:16:09;;;;;;;;;2.50;0.00;;;;;10.96;73.56;100005.81;4975286;28;45521;-42
2023/01/08 09:18:35;;;;;;;;;1.67;1.00;;;;;11.10;73.11;100012.28;4976415;28;45465;-42
2023/01/08 09:21:05;;;;;;;;;0.00;0.00;;;;;11.24;71.77;100014.25;4973697;28;48157;-42
2023/01/08 09:23:30;;;;;;;;;0.67;0.67;;;;;11.36;71.44;100014.75;4975038;28;45442;-42
2023/01/08 09:26:02;;;;;;;;;1.00;1.00;;;;;11.55;71.30;100010.06;4975273;28;45295;-42
2023/01/08 09:28:28;;;;;;;;;2.33;0.00;;;;;12.01;69.17;100010.22;4975490;28;45540;-41
2023/01/08 09:30:53;;;;;;;;;0.00;0.00;;;;;12.43;69.13;100000.00;4974811;28;45425;-41
2023/01/08 09:33:19;;;;;;;;;0.00;0.00;;;;;13.09;67.85;100010.16;4974762;28;49840;-41
2023/01/08 09:35:44;;;;;;;;;0.00;0.00;;;;;13.41;66.01;99990.34;4975120;28;45445;-42
2023/01/08 09:38:09;;;;;;;;;3.00;0.00;;;;;13.17;64.39;99994.88;4975162;28;45237;-42
2023/01/08 09:40:43;;;;;;;;;0.67;0.00;;;;;12.70;66.71;100001.31;4974840;28;45967;-42
2023/01/08 09:43:16;;;;;;;;;1.00;1.00;;;;;12.32;66.99;100004.91;4975004;28;45227;-44
2023/01/08 09:45:44;;;;;;;;;0.67;0.00;;;;;12.13;67.57;100009.66;4975042;28;45393;-42
2023/01/08 09:48:15;;;;;;;;;0.00;0.00;;;;;12.00;68.90;100009.41;4975168;28;45391;-40
2023/01/08 09:50:41;;;;;;;;;1.00;1.00;;;;;11.88;68.34;100005.44;4974042;28;46247;-41
2023/01/08 09:53:15;;;;;;;;;1.00;1.00;;;;;11.77;68.80;100017.31;4973220;28;45332;-41
2023/01/08 09:55:41;;;;;;;;;3.00;0.33;;;;;11.66;69.04;100013.16;4974506;28;45665;-41
2023/01/08 09:58:32;;;;;;;;;2.67;1.00;;;;;11.68;69.06;100011.16;4974788;28;45274;-42
2023/01/08 10:00:59;;;;;;;;;2.00;0.00;;;;;11.61;68.98;100001.38;4972951;28;46037;-42
2023/01/08 10:03:30;;;;;;;;;0.00;0.00;;;;;11.70;69.33;100011.81;4974355;28;45389;-42
2023/01/08 10:05:55;;;;;;;;;0.33;0.00;;;;;11.87;69.03;100009.13;4974514;28;45270;-41
2023/01/08 10:08:21;;;;;;;;;2.00;1.00;;;;;12.56;66.94;100006.59;4974390;28;45402;-40
2023/01/08 10:10:46;;;;;;;;;0.67;0.67;;;;;13.36;64.56;100000.75;4974091;28;45976;-41
2023/01/08 10:13:13;;;;;;;;;0.00;0.00;;;;;12.92;65.38;100001.47;4974493;28;45372;-42
2023/01/08 10:15:39;;;;;;;;;2.00;0.00;;;;;12.48;65.71;100002.13;4974368;28;45408;-41
2023/01/08 10:18:12;;;;;;;;;0.33;0.33;;;;;12.32;66.92;99988.91;4974478;28;45342;-41
2023/01/08 10:20:38;;;;;;;;;1.33;0.00;;;;;12.30;67.25;99989.06;4974158;28;46290;-41
2023/01/08 10:23:15;;;;;;;;;3.33;0.00;;;;;12.37;66.88;99999.88;4974081;28;45324;-40
2023/01/08 10:25:51;;;;;;;;;0.00;0.00;;;;;12.46;67.11;100010.28;4974354;28;45431;-41
2023/01/08 10:28:23;;;;;;;;;0.67;0.67;;;;;12.44;66.89;99996.31;4974453;28;45485;-42
2023/01/08 10:30:50;;;;;;;;;2.00;1.00;;;;;12.40;67.25;100000.34;4973750;28;46291;-41
2023/01/08 10:33:23;;;;;;;;;2.00;0.00;;;;;12.26;67.38;100000.25;4974085;28;45370;-44
2023/01/08 10:35:57;;;;;;;;;1.33;0.67;;;;;12.24;66.99;99987.94;4974208;28;45389;-43
2023/01/08 10:38:26;;;;;;;;;1.00;1.00;;;;;12.71;67.00;99978.09;4974141;28;45418;-42
2023/01/08 10:40:51;;;;;;;;;0.67;0.67;;;;;12.77;65.84;99981.88;4973545;28;46232;-43
2023/01/08 10:43:21;;;;;;;;;2.00;0.67;;;;;12.80;66.36;99971.69;4973787;28;45229;-43
2023/01/08 10:45:58;;;;;;;;;0.33;0.33;;;;;12.86;65.44;99979.00;4973992;28;45231;-44
2023/01/08 10:48:31;;;;;;;;;0.67;0.67;;;;;12.94;65.90;99959.41;4974062;28;45387;-43
2023/01/08 10:51:13;;;;;;;;;2.33;1.00;;;;;13.09;64.95;99962.91;4973410;28;46295;-44
2023/01/08 10:53:40;;;;;;;;;4.00;0.67;;;;;12.89;65.52;99961.78;4973749;28;45202;-42
2023/01/08 10:56:05;;;;;;;;;5.33;1.33;;;;;12.61;65.81;99961.53;4973503;28;45308;-42
2023/01/08 10:58:40;;;;;;;;;6.33;4.67;;;;;12.49;66.87;99969.13;4973944;28;45255;-41
2023/01/08 11:01:11;;;;;;;;;0.33;0.33;;;;;12.44;66.63;99960.81;4973520;28;46515;-42
2023/01/08 11:03:37;;;;;;;;;1.00;0.67;;;;;12.45;66.07;99957.13;4976257;28;45434;-41
2023/01/08 11:06:16;;;;;;;;;1.33;0.00;;;;;12.44;65.40;99956.31;4976850;28;45421;-43
2023/01/08 11:08:50;;;;;;;;;0.00;0.00;;;;;12.40;65.33;99955.00;4977063;28;45228;-42
2023/01/08 11:11:15;;;;;;;;;0.00;0.00;;;;;13.06;64.43;99951.75;4976323;28;46386;-42
2023/01/08 11:13:57;;;;;;;;;0.00;0.00;;;;;13.64;63.29;99936.78;4976691;28;45475;-42
2023/01/08 11:16:31;;;;;;;;;0.00;0.00;;;;;13.96;61.98;99940.91;4976706;28;45342;-43
2023/01/08 11:18:56;;;;;;;;;0.00;0.00;;;;;13.81;60.90;99938.25;4976945;28;45344;-45
2023/01/08 11:21:29;;;;;;;;;0.00;0.00;;;;;13.88;61.97;99920.44;4976498;28;45603;-45
2023/01/08 11:24:31;;;;;;;;;2.00;0.00;;;;;14.89;58.88;99920.41;4976432;28;45492;-46
2023/01/08 11:27:09;;;;;;;;;4.33;0.33;;;;;16.02;56.48;99904.91;4983774;28;45547;-42
2023/01/08 11:30:11;;;;;;;;;1.67;1.00;;;;;16.74;55.12;99890.75;4976653;28;45394;-43